createdAt,value
2023-02-06T15:47:49.651Z,98734.56
2023-02-06T15:50:20.040Z,98733.84
2023-02-06T15:52:48.167Z,98741.38
2023-02-06T15:55:27.723Z,98743.97
2023-02-06T15:57:56.205Z,98730.06
2023-02-06T16:00:25.938Z,98731.19
2023-02-06T16:02:59.115Z,98727.22
2023-02-06T16:05:31.997Z,98730.59
2023-02-06T16:07:59.969Z,98732.44
2023-02-06T16:10:30.007Z,98734.13
2023-02-06T16:12:58.990Z,98735.97
2023-02-06T16:15:30.561Z,98741.31
2023-02-06T16:18:01.524Z,98758.78
2023-02-06T16:20:36.931Z,98746.03
2023-02-06T16:23:22.520Z,98746.03
2023-02-06T16:26:00.852Z,98752.78
2023-02-06T16:28:28.450Z,98750.00
2023-02-06T16:30:57.428Z,98753.69
2023-02-06T16:33:34.358Z,98753.69
2023-02-06T16:36:02.244Z,98762.50
2023-02-06T16:38:29.783Z,98760.81
2023-02-06T16:40:57.691Z,98759.00
2023-02-06T16:43:27.228Z,98760.69
2023-02-06T16:45:54.897Z,98761.59
2023-02-06T16:48:22.477Z,98768.84
2023-02-06T16:50:51.358Z,98772.56
2023-02-06T16:53:22.802Z,98781.34
2023-02-06T16:55:51.030Z,98787.56
2023-02-06T16:58:20.452Z,98790.25
2023-02-06T17:00:48.852Z,98796.38
2023-02-06T17:03:17.584Z,98789.34
2023-02-06T17:05:45.849Z,98792.84
2023-02-06T17:08:19.501Z,98799.50
2023-02-06T17:10:47.687Z,98811.00
2023-02-06T17:13:16.174Z,98812.69
2023-02-06T17:15:44.174Z,98811.16
2023-02-06T17:18:13.592Z,98817.22
2023-02-06T17:20:42.480Z,98815.53
2023-02-06T17:23:10.854Z,98817.09
2023-02-06T17:25:40.361Z,98819.97
2023-02-06T17:28:09.132Z,98824.41
2023-02-06T17:30:38.167Z,98821.25
2023-02-06T17:33:06.345Z,98831.41
2023-02-06T17:35:36.644Z,98821.63
2023-02-06T17:38:04.649Z,98828.91
2023-02-06T17:40:34.763Z,98840.00
2023-02-06T17:43:05.709Z,98844.38
2023-02-06T17:45:33.661Z,98840.09
2023-02-06T17:48:01.456Z,98850.25
2023-02-06T17:50:29.957Z,98843.28
2023-02-06T17:52:59.453Z,98847.66
2023-02-06T17:55:28.619Z,98840.22
2023-02-06T17:57:56.803Z,98856.13
2023-02-06T18:00:26.426Z,98837.31
2023-02-06T18:02:55.435Z,98856.19
2023-02-06T18:05:23.507Z,98864.19
2023-02-06T18:07:51.898Z,98865.56
2023-02-06T18:10:20.825Z,98858.28
2023-02-06T18:12:48.934Z,98850.19
2023-02-06T18:15:16.927Z,98845.69
2023-02-06T18:17:45.770Z,98843.59
2023-02-06T18:20:13.661Z,98830.91
2023-02-06T18:22:42.101Z,98839.75
2023-02-06T18:25:10.779Z,98839.28
2023-02-06T18:27:39.356Z,98837.69
2023-02-06T18:30:07.800Z,98844.69
2023-02-06T18:32:36.963Z,98836.13
2023-02-06T18:35:06.700Z,98835.69
2023-02-06T18:37:34.992Z,98848.72
2023-02-06T18:40:02.763Z,98833.47
2023-02-06T18:42:47.753Z,98851.91
2023-02-06T18:45:15.488Z,98852.19
2023-02-06T18:47:43.261Z,98861.97
2023-02-06T18:50:12.789Z,98843.34
2023-02-06T18:52:40.518Z,98864.47
2023-02-06T18:55:09.226Z,98869.81
2023-02-06T18:57:36.988Z,98864.47
2023-02-06T19:00:06.170Z,98863.56
2023-02-06T19:02:33.956Z,98857.72
2023-02-06T19:05:01.738Z,98850.25
2023-02-06T19:07:30.823Z,98853.00
2023-02-06T19:09:58.927Z,98860.59
2023-02-06T19:12:28.036Z,98855.53
2023-02-06T19:14:55.965Z,98863.28
2023-02-06T19:17:24.150Z,98867.56
2023-02-06T19:19:51.967Z,98866.56
2023-02-06T19:22:19.885Z,98872.91
2023-02-06T19:24:51.032Z,98867.94
2023-02-06T19:27:18.572Z,98869.81
2023-02-06T19:29:46.239Z,98865.50
2023-02-06T19:32:13.824Z,98868.00
2023-02-06T19:34:42.200Z,98872.00
2023-02-06T19:37:11.775Z,98867.25
2023-02-06T19:39:40.398Z,98855.22
2023-02-06T19:42:11.137Z,98863.84
2023-02-06T19:44:38.973Z,98867.16
2023-02-06T19:47:06.490Z,98866.38
2023-02-06T19:49:34.265Z,98864.75
2023-02-06T19:52:02.316Z,98866.34
2023-02-06T19:54:29.972Z,98858.69
2023-02-06T19:56:57.520Z,98853.06
2023-02-06T19:59:28.545Z,98854.72
2023-02-06T20:01:57.612Z,98863.88
2023-02-06T20:04:27.415Z,98865.09
2023-02-06T20:06:55.820Z,98865.53
2023-02-06T20:09:24.446Z,98857.38
2023-02-06T20:11:52.081Z,98870.13
2023-02-06T20:14:20.179Z,98880.63
2023-02-06T20:16:49.250Z,98875.63
2023-02-06T20:19:18.671Z,98878.38
2023-02-06T20:21:48.072Z,98889.03
2023-02-06T20:24:18.420Z,98882.31
2023-02-06T20:26:46.299Z,98890.81
2023-02-06T20:29:20.286Z,98895.97
2023-02-06T20:31:49.967Z,98908.91
2023-02-06T20:34:18.225Z,98896.94
2023-02-06T20:36:47.380Z,98896.19
2023-02-06T20:39:15.759Z,98898.00
2023-02-06T20:41:45.274Z,98895.41
2023-02-06T20:44:14.193Z,98904.06
2023-02-06T20:46:42.317Z,98909.63
2023-02-06T20:49:14.983Z,98899.59
2023-02-06T20:51:42.504Z,98901.41
2023-02-06T20:54:11.540Z,98907.50
2023-02-06T20:56:39.688Z,98919.66
2023-02-06T20:59:07.825Z,98911.06
2023-02-06T21:01:35.982Z,98908.66
2023-02-06T21:04:05.153Z,98910.56
2023-02-06T21:06:34.905Z,98908.31
2023-02-06T21:09:03.159Z,98895.69
2023-02-06T21:11:32.109Z,98904.19
2023-02-06T21:14:01.618Z,98915.47
2023-02-06T21:16:30.285Z,98910.31
2023-02-06T21:18:58.766Z,98904.50
2023-02-06T21:21:26.642Z,98922.41
2023-02-06T21:23:56.569Z,98925.84
2023-02-06T21:26:24.713Z,98925.19
2023-02-06T21:28:52.681Z,98925.25
2023-02-06T21:31:22.163Z,98914.06
2023-02-06T21:33:51.302Z,98918.41
2023-02-06T21:36:20.992Z,98919.22
2023-02-06T21:38:48.611Z,98921.13
2023-02-06T21:41:18.931Z,98931.44
2023-02-06T21:43:46.678Z,98924.78
2023-02-06T21:46:14.365Z,98937.56
2023-02-06T21:48:42.285Z,98928.34
2023-02-06T21:51:11.338Z,98953.16
2023-02-06T21:53:39.231Z,98963.44
2023-02-06T21:56:07.857Z,98970.16
2023-02-06T21:58:36.910Z,98962.38
2023-02-06T22:01:08.524Z,98971.00
2023-02-06T22:03:36.585Z,98970.84
2023-02-06T22:06:08.555Z,98979.56
2023-02-06T22:08:36.468Z,98980.63
2023-02-06T22:11:12.046Z,98990.06
2023-02-06T22:13:41.118Z,98989.31
2023-02-06T22:16:09.587Z,98989.38
2023-02-06T22:18:37.481Z,98988.50
2023-02-06T22:21:06.594Z,98993.50
2023-02-06T22:23:34.243Z,98995.91
2023-02-06T22:26:01.896Z,99000.19
2023-02-06T22:28:29.466Z,99000.09
2023-02-06T22:31:05.520Z,98995.88
2023-02-06T22:33:33.157Z,98998.47
2023-02-06T22:36:00.929Z,99001.75
2023-02-06T22:38:28.439Z,99007.91
2023-02-06T22:41:00.324Z,99008.84
2023-02-06T22:43:28.224Z,99012.56
2023-02-06T22:45:55.787Z,99015.53
2023-02-06T22:48:24.793Z,99016.66
2023-02-06T22:50:53.620Z,99018.56
2023-02-06T22:53:31.749Z,99020.50
2023-02-06T22:56:17.446Z,99024.88
2023-02-06T22:58:44.944Z,99034.41
2023-02-06T23:01:12.941Z,99022.56
2023-02-06T23:03:41.922Z,99048.25
2023-02-06T23:06:11.624Z,99039.88
2023-02-06T23:08:39.867Z,99056.09
2023-02-06T23:11:08.636Z,99062.16
2023-02-06T23:13:36.968Z,99063.00
2023-02-06T23:16:05.090Z,99073.28
2023-02-06T23:18:32.897Z,99077.56
2023-02-06T23:21:03.421Z,99073.44
2023-02-06T23:23:31.032Z,99076.00
2023-02-06T23:25:58.658Z,99083.72
2023-02-06T23:28:27.606Z,99075.22
2023-02-06T23:30:55.757Z,99062.53
2023-02-06T23:33:23.949Z,99058.31
2023-02-06T23:35:51.878Z,99060.00
2023-02-06T23:38:21.008Z,99054.81
2023-02-06T23:40:48.843Z,99026.53
2023-02-06T23:43:16.369Z,99043.59
2023-02-06T23:45:43.898Z,99044.50
2023-02-06T23:48:11.770Z,99053.91
2023-02-06T23:50:39.308Z,99049.63
2023-02-06T23:53:06.865Z,99048.81
2023-02-06T23:55:35.932Z,99053.03
2023-02-06T23:58:03.719Z,99038.38
